createdAt,value
2019-05-20T00:02:24.649Z,14.20
2019-05-20T00:46:20.638Z,13.80
2019-05-20T00:49:49.258Z,13.80
2019-05-20T00:56:24.599Z,13.80
2019-05-20T01:08:41.745Z,13.90
2019-05-20T01:12:11.475Z,13.90
2019-05-20T01:27:24.289Z,14.10
2019-05-20T01:31:05.631Z,14.10
2019-05-20T01:33:41.814Z,14.10
2019-05-20T01:36:13.334Z,14.20
2019-05-20T01:39:11.898Z,14.20
2019-05-20T01:41:49.615Z,14.20
2019-05-20T01:44:28.172Z,14.20
2019-05-20T01:46:57.410Z,14.30
2019-05-20T01:49:31.813Z,14.30
2019-05-20T01:52:17.717Z,14.20
2019-05-20T01:55:22.798Z,14.20
2019-05-20T01:57:56.541Z,14.20
2019-05-20T02:00:29.611Z,14.20
2019-05-20T02:03:04.701Z,14.20
2019-05-20T02:05:41.063Z,14.20
2019-05-20T02:08:11.937Z,14.30
2019-05-20T02:10:49.427Z,14.30
2019-05-20T02:13:33.255Z,14.20
2019-05-20T02:16:54.837Z,14.20
2019-05-20T02:19:30.258Z,14.20
2019-05-20T02:22:19.253Z,14.10
2019-05-20T02:24:58.174Z,14.10
2019-05-20T02:27:35.190Z,14.00
2019-05-20T02:30:08.550Z,14.00
2019-05-20T02:32:42.583Z,13.90
2019-05-20T02:35:18.112Z,13.90
2019-05-20T02:37:48.833Z,13.90
2019-05-20T02:40:22.726Z,13.80
2019-05-20T02:42:53.886Z,13.80
2019-05-20T02:45:27.654Z,13.70
2019-05-20T02:47:59.339Z,13.70
2019-05-20T02:50:52.716Z,13.70
2019-05-20T02:53:31.436Z,13.70
2019-05-20T03:16:08.987Z,13.60
2019-05-20T03:22:36.972Z,13.50
2019-05-20T03:25:31.460Z,13.60
2019-05-20T03:28:39.726Z,13.60
2019-05-20T03:31:36.547Z,13.70
2019-05-20T03:34:57.096Z,13.80
2019-05-20T03:37:03.469Z,13.80
2019-05-20T03:39:34.544Z,13.90
2019-05-20T03:42:06.126Z,14.00
2019-05-20T03:44:37.120Z,14.00
2019-05-20T03:47:08.152Z,14.10
2019-05-20T03:49:39.410Z,14.10
2019-05-20T03:52:10.410Z,14.20
2019-05-20T03:54:41.451Z,14.30
2019-05-20T03:57:12.524Z,14.30
2019-05-20T03:59:45.170Z,14.40
2019-05-20T04:02:16.433Z,14.50
2019-05-20T04:05:01.526Z,14.60
2019-05-20T04:07:20.495Z,14.70
2019-05-20T04:09:52.286Z,14.80
2019-05-20T04:12:23.349Z,14.90
2019-05-20T04:14:56.186Z,15.00
2019-05-20T04:17:27.557Z,15.00
2019-05-20T04:20:01.568Z,15.20
2019-05-20T04:22:34.252Z,15.30
2019-05-20T04:25:06.131Z,15.40
2019-05-20T04:27:37.254Z,15.40
2019-05-20T04:30:08.794Z,15.50
2019-05-20T04:32:40.069Z,15.60
2019-05-20T04:35:22.223Z,15.70
2019-05-20T04:37:44.395Z,15.80
2019-05-20T04:40:15.597Z,15.90
2019-05-20T04:42:47.345Z,16.00
2019-05-20T04:45:20.248Z,16.10
2019-05-20T04:47:51.340Z,16.20
2019-05-20T04:50:22.303Z,16.30
2019-05-20T04:52:53.383Z,16.40
2019-05-20T04:55:24.622Z,16.50
2019-05-20T04:57:55.540Z,16.70
2019-05-20T05:00:55.174Z,16.80
2019-05-20T05:03:29.306Z,17.00
2019-05-20T05:06:01.044Z,17.10
2019-05-20T05:08:34.009Z,17.30
2019-05-20T05:11:05.373Z,17.40
2019-05-20T05:13:36.568Z,17.50
2019-05-20T05:16:08.123Z,17.70
2019-05-20T05:18:39.878Z,17.90
2019-05-20T05:21:11.475Z,18.00
2019-05-20T05:23:42.503Z,18.20
2019-05-20T05:26:13.452Z,18.30
2019-05-20T05:28:45.209Z,18.30
2019-05-20T05:31:17.202Z,18.50
2019-05-20T05:33:49.004Z,18.60
2019-05-20T05:36:21.957Z,18.70
2019-05-20T05:38:55.113Z,18.90
2019-05-20T05:41:27.354Z,19.00
2019-05-20T05:43:59.890Z,19.20
2019-05-20T05:47:41.764Z,19.30
2019-05-20T05:51:35.105Z,19.40
2019-05-20T05:54:10.679Z,19.50
2019-05-20T05:56:41.726Z,19.60
2019-05-20T05:59:16.418Z,19.70
2019-05-20T06:01:55.941Z,19.80
2019-05-20T06:04:28.831Z,20.00
2019-05-20T06:07:00.926Z,20.10
2019-05-20T06:09:40.368Z,20.20
2019-05-20T06:12:11.433Z,20.30
2019-05-20T06:14:46.152Z,20.30
2019-05-20T06:17:26.434Z,20.30
2019-05-20T06:20:22.953Z,20.40
2019-05-20T06:22:54.190Z,20.60
2019-05-20T06:25:25.229Z,20.80
2019-05-20T06:28:32.049Z,20.90
2019-05-20T06:34:57.108Z,21.00
2019-05-20T06:44:52.988Z,21.30
2019-05-20T06:50:12.265Z,21.50
2019-05-20T06:52:43.672Z,21.60
2019-05-20T06:55:14.838Z,21.80
2019-05-20T06:57:46.076Z,21.90
2019-05-20T07:00:23.137Z,21.90
2019-05-20T07:02:54.192Z,22.00
2019-05-20T07:05:25.140Z,22.10
2019-05-20T07:07:56.281Z,22.30
2019-05-20T07:10:27.514Z,22.50
2019-05-20T07:12:59.939Z,22.60
2019-05-20T07:15:31.271Z,22.70
2019-05-20T07:18:02.376Z,22.90
2019-05-20T07:20:33.388Z,23.00
2019-05-20T07:23:04.666Z,23.10
2019-05-20T07:25:35.968Z,23.20
2019-05-20T07:28:07.111Z,23.30
2019-05-20T07:30:38.048Z,23.40
2019-05-20T07:33:09.116Z,23.50
2019-05-20T07:35:40.030Z,23.70
2019-05-20T07:38:11.316Z,23.80
2019-05-20T07:40:42.481Z,23.90
2019-05-20T07:43:13.572Z,23.90
2019-05-20T07:45:45.125Z,24.00
2019-05-20T07:48:16.544Z,24.20
2019-05-20T07:50:47.929Z,24.30
2019-05-20T07:53:20.672Z,24.50
2019-05-20T07:56:00.444Z,24.60
2019-05-20T07:58:34.080Z,24.60
2019-05-20T08:01:05.053Z,24.70
2019-05-20T08:03:38.623Z,24.70
2019-05-20T08:06:08.978Z,24.70
2019-05-20T08:08:40.880Z,24.70
2019-05-20T08:11:11.884Z,24.60
2019-05-20T08:13:42.880Z,24.70
2019-05-20T08:16:13.853Z,24.80
2019-05-20T08:18:44.789Z,24.80
2019-05-20T08:21:16.589Z,24.90
2019-05-20T08:23:50.126Z,25.00
2019-05-20T08:26:20.245Z,24.90
2019-05-20T08:28:51.323Z,24.90
2019-05-20T08:31:22.254Z,24.90
2019-05-20T08:33:53.227Z,24.90
2019-05-20T08:36:24.229Z,24.90
2019-05-20T08:38:56.295Z,24.90
2019-05-20T08:41:27.473Z,24.90
2019-05-20T08:43:58.555Z,24.80
2019-05-20T08:46:29.676Z,24.70
2019-05-20T08:49:01.687Z,24.60
2019-05-20T08:51:32.760Z,24.60
2019-05-20T08:54:04.014Z,24.60
2019-05-20T08:56:34.853Z,24.70
2019-05-20T08:59:05.994Z,24.90
2019-05-20T09:01:37.065Z,25.00
2019-05-20T09:04:08.018Z,25.10
2019-05-20T09:06:38.851Z,25.20
2019-05-20T09:09:12.548Z,25.50
2019-05-20T09:11:46.967Z,25.70
2019-05-20T09:14:16.450Z,25.80
2019-05-20T09:16:47.493Z,25.80
2019-05-20T09:19:18.412Z,25.70
2019-05-20T09:21:49.247Z,25.70
2019-05-20T09:24:20.156Z,25.70
2019-05-20T09:26:51.636Z,25.70
2019-05-20T09:29:22.498Z,25.70
2019-05-20T09:31:53.604Z,25.80
2019-05-20T09:34:24.737Z,25.80
2019-05-20T09:36:58.992Z,25.70
2019-05-20T09:39:30.051Z,25.60
2019-05-20T09:42:01.145Z,25.80
2019-05-20T09:44:32.241Z,25.80
2019-05-20T09:47:03.041Z,26.00
2019-05-20T09:49:34.391Z,26.20
2019-05-20T09:52:05.333Z,26.30
2019-05-20T09:54:36.498Z,26.50
2019-05-20T09:57:07.348Z,26.40
2019-05-20T09:59:43.355Z,26.30
2019-05-20T10:02:10.819Z,26.40
2019-05-20T10:04:41.998Z,26.50
2019-05-20T10:07:13.277Z,26.50
2019-05-20T10:09:44.226Z,26.70
2019-05-20T10:12:15.343Z,27.00
2019-05-20T10:14:52.649Z,27.10
2019-05-20T10:17:21.666Z,27.00
2019-05-20T10:19:57.212Z,27.00
2019-05-20T10:22:28.107Z,27.00
2019-05-20T10:24:58.970Z,26.90
2019-05-20T10:27:29.984Z,26.80
2019-05-20T10:30:01.125Z,26.80
2019-05-20T10:32:32.191Z,26.90
2019-05-20T10:35:03.064Z,27.00
2019-05-20T10:37:33.848Z,27.20
2019-05-20T10:40:04.995Z,27.40
2019-05-20T10:42:35.945Z,27.40
2019-05-20T10:45:07.363Z,27.30
2019-05-20T10:47:38.251Z,27.50
2019-05-20T10:50:09.535Z,27.50
2019-05-20T10:52:40.394Z,27.60
2019-05-20T10:55:11.504Z,27.80
2019-05-20T10:57:43.606Z,27.90
2019-05-20T11:00:19.231Z,27.90
2019-05-20T11:02:50.078Z,27.90
2019-05-20T11:05:21.106Z,28.10
2019-05-20T11:07:52.172Z,28.20
2019-05-20T11:10:23.408Z,28.10
2019-05-20T11:12:54.356Z,28.00
2019-05-20T11:15:25.429Z,28.10
2019-05-20T11:17:56.814Z,28.20
2019-05-20T11:20:27.748Z,28.30
2019-05-20T11:23:00.990Z,28.60
2019-05-20T11:25:31.460Z,28.70
2019-05-20T11:28:02.360Z,28.70
2019-05-20T11:30:33.556Z,28.70
2019-05-20T11:33:04.462Z,28.90
2019-05-20T11:35:35.333Z,29.00
2019-05-20T11:38:06.262Z,28.90
2019-05-20T11:40:37.236Z,28.80
2019-05-20T11:43:11.148Z,28.80
2019-05-20T11:45:50.994Z,29.10
2019-05-20T11:48:22.405Z,29.40
2019-05-20T11:50:53.308Z,29.50
2019-05-20T11:53:24.397Z,29.20
2019-05-20T11:55:57.139Z,28.60
2019-05-20T11:58:28.206Z,28.20
2019-05-20T12:01:00.643Z,28.10
2019-05-20T12:03:31.572Z,28.30
2019-05-20T12:06:03.091Z,28.30
2019-05-20T12:08:34.530Z,28.40
2019-05-20T12:11:05.387Z,28.40
2019-05-20T12:13:36.163Z,28.30
2019-05-20T12:16:08.067Z,28.10
2019-05-20T12:18:39.778Z,28.10
2019-05-20T12:21:11.078Z,28.00
2019-05-20T12:23:42.478Z,28.00
2019-05-20T12:26:14.742Z,28.00
2019-05-20T12:28:46.876Z,28.10
2019-05-20T12:31:18.228Z,28.30
2019-05-20T12:33:49.304Z,28.70
2019-05-20T12:36:20.283Z,28.40
2019-05-20T12:38:51.378Z,27.80
2019-05-20T12:41:22.423Z,27.20
2019-05-20T12:44:09.943Z,26.90
2019-05-20T12:46:25.945Z,26.70
2019-05-20T12:48:56.979Z,27.00
2019-05-20T12:51:28.004Z,27.40
2019-05-20T12:54:00.196Z,28.00
2019-05-20T12:56:31.329Z,28.60
2019-05-20T12:59:02.926Z,29.00
2019-05-20T13:01:36.002Z,29.30
2019-05-20T13:04:07.210Z,29.30
2019-05-20T13:06:39.066Z,29.30
2019-05-20T13:09:10.386Z,29.20
2019-05-20T13:11:41.297Z,29.30
2019-05-20T13:14:12.975Z,29.20
2019-05-20T13:16:44.818Z,29.20
2019-05-20T13:19:15.860Z,29.30
2019-05-20T13:21:47.936Z,29.50
2019-05-20T13:24:20.901Z,29.80
2019-05-20T13:26:55.694Z,29.90
2019-05-20T13:29:27.291Z,30.00
2019-05-20T13:31:58.226Z,30.10
2019-05-20T13:34:30.716Z,30.10
2019-05-20T13:37:02.924Z,30.10
2019-05-20T13:39:33.948Z,29.40
2019-05-20T13:42:04.860Z,28.60
2019-05-20T13:44:35.665Z,27.90
2019-05-20T13:47:07.818Z,27.50
2019-05-20T13:49:40.210Z,27.20
2019-05-20T13:52:11.348Z,26.90
2019-05-20T13:54:42.216Z,26.60
2019-05-20T13:57:13.571Z,26.40
2019-05-20T13:59:44.623Z,26.60
2019-05-20T14:02:16.398Z,27.10
2019-05-20T14:04:48.377Z,27.60
2019-05-20T14:07:19.440Z,28.10
2019-05-20T14:09:50.582Z,28.40
2019-05-20T14:12:23.259Z,28.50
2019-05-20T14:14:54.415Z,28.60
2019-05-20T14:17:25.586Z,28.60
2019-05-20T14:19:59.570Z,28.50
2019-05-20T14:22:34.272Z,28.30
2019-05-20T14:25:07.898Z,27.60
2019-05-20T14:27:40.075Z,26.90
2019-05-20T14:30:12.935Z,26.30
2019-05-20T14:32:43.809Z,25.80
2019-05-20T14:35:16.064Z,25.40
2019-05-20T14:37:47.736Z,25.10
2019-05-20T14:40:19.867Z,24.70
2019-05-20T14:42:51.260Z,24.40
2019-05-20T14:45:22.930Z,24.10
2019-05-20T14:47:55.366Z,23.90
2019-05-20T14:50:26.801Z,23.80
2019-05-20T14:52:58.441Z,23.80
2019-05-20T14:55:30.058Z,23.70
2019-05-20T14:58:00.915Z,23.70
2019-05-20T15:00:31.813Z,23.70
2019-05-20T15:03:02.621Z,23.70
2019-05-20T15:05:34.933Z,23.70
2019-05-20T15:08:06.132Z,23.80
2019-05-20T15:10:43.725Z,23.80
2019-05-20T15:13:15.587Z,23.90
2019-05-20T15:15:48.611Z,24.00
2019-05-20T15:18:29.690Z,24.00
2019-05-20T15:21:01.257Z,24.10
2019-05-20T15:23:37.638Z,24.10
2019-05-20T15:26:09.049Z,24.00
2019-05-20T15:28:40.620Z,23.90
2019-05-20T15:31:12.149Z,23.90
2019-05-20T15:33:43.044Z,23.80
2019-05-20T15:36:14.444Z,23.80
2019-05-20T15:38:45.236Z,23.70
2019-05-20T15:41:16.853Z,23.60
2019-05-20T15:43:50.102Z,23.50
2019-05-20T15:46:23.418Z,23.40
2019-05-20T15:48:55.170Z,23.30
2019-05-20T15:51:26.165Z,23.30
2019-05-20T15:53:57.298Z,23.10
2019-05-20T15:56:28.300Z,23.00
2019-05-20T15:59:01.140Z,22.90
2019-05-20T16:01:34.159Z,22.80
2019-05-20T16:04:05.387Z,22.70
2019-05-20T16:06:37.202Z,22.60
2019-05-20T16:09:09.649Z,22.10
2019-05-20T16:11:41.550Z,21.60
2019-05-20T16:14:13.248Z,21.40
2019-05-20T16:16:45.170Z,21.20
2019-05-20T16:19:16.938Z,21.10
2019-05-20T16:21:48.865Z,21.10
2019-05-20T16:24:20.509Z,21.00
2019-05-20T16:26:53.550Z,21.00
2019-05-20T16:29:25.493Z,21.00
2019-05-20T16:31:57.530Z,20.80
2019-05-20T16:34:34.209Z,20.70
2019-05-20T16:37:06.201Z,20.50
2019-05-20T16:39:45.189Z,20.30
2019-05-20T16:42:20.359Z,20.20
2019-05-20T16:44:52.170Z,20.20
2019-05-20T16:47:24.214Z,20.10
2019-05-20T16:49:56.011Z,20.20
2019-05-20T16:52:32.895Z,20.20
2019-05-20T16:55:04.379Z,20.20
2019-05-20T16:57:36.439Z,20.20
2019-05-20T17:00:29.062Z,20.20
2019-05-20T17:02:45.374Z,20.30
2019-05-20T17:05:19.279Z,20.50
2019-05-20T17:07:53.495Z,20.60
2019-05-20T17:10:27.342Z,20.60
2019-05-20T17:13:00.121Z,20.50
2019-05-20T17:15:31.971Z,20.40
2019-05-20T17:18:04.933Z,20.40
2019-05-20T17:20:36.837Z,20.20
2019-05-20T17:23:10.233Z,20.00
2019-05-20T17:25:43.138Z,19.80
2019-05-20T17:28:14.936Z,19.60
2019-05-20T17:30:49.418Z,19.50
2019-05-20T17:36:16.890Z,19.40
2019-05-20T17:38:49.657Z,19.30
2019-05-20T17:41:21.873Z,19.40
2019-05-20T17:43:54.986Z,19.40
2019-05-20T17:46:45.628Z,19.40
2019-05-20T17:49:20.107Z,19.40
2019-05-20T17:51:52.502Z,19.40
2019-05-20T17:54:24.417Z,19.50
2019-05-20T17:56:56.522Z,19.50
2019-05-20T17:59:28.401Z,19.50
2019-05-20T18:02:00.275Z,19.40
2019-05-20T18:04:32.744Z,19.50
2019-05-20T18:07:05.563Z,19.50
2019-05-20T18:09:39.302Z,19.50
2019-05-20T18:12:11.314Z,19.50
2019-05-20T18:14:46.155Z,19.60
2019-05-20T18:17:20.489Z,19.60
2019-05-20T18:19:52.993Z,19.60
2019-05-20T18:22:25.813Z,19.50
2019-05-20T18:24:57.971Z,19.40
2019-05-20T18:27:29.389Z,19.30
2019-05-20T18:30:00.799Z,19.30
2019-05-20T18:32:33.204Z,19.40
2019-05-20T18:35:07.203Z,19.40
2019-05-20T18:37:38.383Z,19.40
2019-05-20T18:40:14.241Z,19.50
2019-05-20T18:42:43.425Z,19.40
2019-05-20T18:45:15.745Z,19.40
2019-05-20T18:47:47.193Z,19.40
2019-05-20T18:50:18.415Z,19.40
2019-05-20T18:52:49.750Z,19.30
2019-05-20T18:55:20.882Z,19.30
2019-05-20T18:57:51.870Z,19.20
2019-05-20T19:00:22.997Z,19.20
2019-05-20T19:02:53.880Z,19.10
2019-05-20T19:05:24.883Z,19.10
2019-05-20T19:07:55.806Z,19.10
2019-05-20T19:10:27.717Z,19.10
2019-05-20T19:12:59.953Z,19.10
2019-05-20T19:15:30.896Z,19.00
2019-05-20T19:18:01.802Z,19.00
2019-05-20T19:20:32.920Z,18.90
2019-05-20T19:23:04.368Z,19.00
2019-05-20T19:25:38.398Z,19.00
2019-05-20T19:28:26.463Z,19.00
2019-05-20T19:31:01.305Z,19.00
2019-05-20T19:33:32.333Z,18.90
2019-05-20T19:36:03.212Z,18.90
2019-05-20T19:38:34.991Z,18.60
2019-05-20T19:41:06.311Z,18.10
2019-05-20T19:43:37.595Z,18.00
2019-05-20T19:46:08.794Z,18.10
2019-05-20T19:48:39.895Z,18.20
2019-05-20T19:51:10.937Z,18.20
2019-05-20T19:53:41.872Z,18.20
2019-05-20T19:56:12.832Z,18.20
2019-05-20T19:58:43.891Z,18.40
2019-05-20T20:01:15.059Z,18.40
2019-05-20T20:03:46.062Z,18.50
2019-05-20T20:06:17.441Z,18.60
2019-05-20T20:08:48.790Z,18.70
2019-05-20T20:11:19.705Z,18.70
2019-05-20T20:13:50.737Z,18.70
2019-05-20T20:16:24.319Z,18.80
2019-05-20T20:18:55.365Z,18.70
2019-05-20T20:21:26.604Z,18.70
2019-05-20T20:23:57.568Z,18.60
2019-05-20T20:26:28.940Z,18.50
2019-05-20T20:28:59.798Z,18.40
2019-05-20T20:31:30.755Z,18.40
2019-05-20T20:34:01.673Z,18.30
2019-05-20T20:36:58.414Z,18.30
2019-05-20T20:39:55.299Z,18.20
2019-05-20T20:42:56.567Z,18.20
2019-05-20T20:46:09.590Z,18.10
2019-05-20T20:49:27.257Z,18.10
2019-05-20T20:52:55.159Z,18.00
2019-05-20T20:56:02.506Z,18.00
2019-05-20T20:59:06.030Z,18.00
2019-05-20T21:01:58.375Z,18.00
2019-05-20T21:04:41.814Z,17.90
2019-05-20T21:07:14.556Z,17.90
2019-05-20T21:09:45.604Z,17.90
2019-05-20T21:12:16.451Z,17.90
2019-05-20T21:14:48.292Z,17.90
2019-05-20T21:17:19.157Z,17.80
2019-05-20T21:19:51.141Z,17.90
2019-05-20T21:22:22.004Z,17.90
2019-05-20T21:24:53.071Z,17.90
2019-05-20T21:27:23.969Z,17.90
2019-05-20T21:29:54.942Z,17.90
2019-05-20T21:32:25.825Z,17.90
2019-05-20T21:34:56.800Z,17.90
2019-05-20T21:37:28.712Z,17.90
2019-05-20T21:40:00.551Z,17.90
2019-05-20T21:42:31.358Z,17.90
2019-05-20T21:45:02.232Z,17.90
2019-05-20T21:47:33.163Z,17.90
2019-05-20T21:50:04.101Z,18.00
2019-05-20T21:52:35.062Z,18.00
2019-05-20T21:55:06.011Z,18.00
2019-05-20T21:57:36.900Z,18.00
2019-05-20T22:00:10.769Z,18.00
2019-05-20T22:02:43.116Z,17.90
2019-05-20T22:05:14.235Z,17.90
2019-05-20T22:07:46.113Z,17.80
2019-05-20T22:10:17.020Z,17.80
2019-05-20T22:12:47.783Z,17.80
2019-05-20T22:15:18.723Z,17.80
2019-05-20T22:17:49.540Z,17.80
2019-05-20T22:20:20.400Z,17.70
2019-05-20T22:23:10.137Z,17.70
2019-05-20T22:25:40.969Z,17.60
2019-05-20T22:28:12.822Z,17.50
2019-05-20T22:30:43.892Z,17.50
2019-05-20T22:33:14.647Z,17.40
2019-05-20T22:35:45.472Z,17.50
2019-05-20T22:38:16.223Z,17.50
2019-05-20T22:40:47.067Z,17.50
2019-05-20T22:43:17.890Z,17.50
2019-05-20T22:45:48.769Z,17.50
2019-05-20T22:48:19.570Z,17.60
2019-05-20T22:50:50.486Z,17.70
2019-05-20T22:53:22.588Z,17.70
2019-05-20T22:55:53.488Z,17.70
2019-05-20T22:58:24.304Z,17.70
2019-05-20T23:00:55.315Z,17.70
2019-05-20T23:03:26.259Z,17.60
2019-05-20T23:05:57.108Z,17.60
2019-05-20T23:08:27.885Z,17.60
2019-05-20T23:10:58.694Z,17.60
2019-05-20T23:13:29.454Z,17.60
2019-05-20T23:16:00.289Z,17.60
2019-05-20T23:18:31.083Z,17.70
2019-05-20T23:21:01.939Z,17.70
2019-05-20T23:23:32.828Z,17.70
2019-05-20T23:26:03.768Z,17.80
2019-05-20T23:28:34.636Z,17.80
2019-05-20T23:31:06.119Z,17.80
2019-05-20T23:33:36.936Z,17.90
2019-05-20T23:36:07.748Z,17.90
2019-05-20T23:38:38.522Z,17.90
2019-05-20T23:41:09.366Z,17.90
2019-05-20T23:43:40.152Z,17.90
2019-05-20T23:46:11.114Z,17.90
2019-05-20T23:48:41.959Z,17.90
2019-05-20T23:51:12.923Z,17.90
2019-05-20T23:53:43.797Z,17.90
2019-05-20T23:56:14.702Z,17.90
2019-05-20T23:58:45.528Z,17.80
